EGUW - Wattisham
Distance from station: E 5mi, 14km
Updated: 07/22/2024 10:20pm
Overcast
Overcast
 Wind from WSW
Wind: WSW 5 mph , 7 km/h
Temperature: 61°F , 16°C
Dew Point: 59°F , 15°C
Humidity: 94%
Barometer: 29.94 inHg , 1014 hPa
Clouds: Overcast
Visibility: 6 miles , 10 km
Cloud details: Overcast 1500 ft
2024/07/23 05:20 EGUW 230520Z AUTO 24004KT 9999 OVC015/// 16/15 Q1014